FNLU/LAD METAR and TAF weather

Enter ICAO airport designator
Station Type Date Time Source
FNLU METAR 2019/06/25 00:00 UTC NOAA

FNLU 250000Z VRB02KT 8000 FEW020 21/21 Q1013 NOSIOG


Station Type Date Time Source
FNLU Decoded METAR 2019/06/25 00:00 UTC NOAA

Luanda, Angola (FNLU) 08-51S 013-14E 70M
Jun 24, 2019 - 08:00 PM EDT / 2019.06.25 0000 UTC
Wind: Variable at 2 MPH (2 KT):0
Visibility: 4 mile(s):0
Sky conditions: mostly clear
Temperature: 69 F (21 C)
Dew Point: 69 F (21 C)
Relative Humidity: 100%
Pressure (altimeter): 29.91 in. Hg (1013 hPa)
ob: FNLU 250000Z VRB02KT 8000 FEW020 21/21 Q1013 NOSIOG
cycle: 0

Station Type Date Time Source
FNLU TAF 2019/06/24 18:12 UTC NOAA

TAF TAF FNLU 241700Z 2418/2524 21006KT 9999 BKN020
BECMG 2421/2423 8000
TEMPO 2504/2509 14005KT 4000 BR

Example: see airport list